sensor_id;sensor_type;location;lat;lon;timestamp;temperature;humidity
52187;DHT22;38161;53.020;6.598;2023-04-25T00:01:25;6.80;99.90
52187;DHT22;38161;53.020;6.598;2023-04-25T00:03:50;6.80;99.90
52187;DHT22;38161;53.020;6.598;2023-04-25T00:06:16;6.80;99.90
52187;DHT22;38161;53.020;6.598;2023-04-25T00:08:43;6.70;99.90
52187;DHT22;38161;53.020;6.598;2023-04-25T00:11:08;6.70;99.90
52187;DHT22;38161;53.020;6.598;2023-04-25T00:13:34;6.70;99.90
52187;DHT22;38161;53.020;6.598;2023-04-25T00:16:00;6.70;99.90
52187;DHT22;38161;53.020;6.598;2023-04-25T00:18:27;6.70;99.90
52187;DHT22;38161;53.020;6.598;2023-04-25T00:20:54;6.70;99.90
52187;DHT22;38161;53.020;6.598;2023-04-25T00:23:21;6.70;99.90
52187;DHT22;38161;53.020;6.598;2023-04-25T00:25:49;6.70;99.90
52187;DHT22;38161;53.020;6.598;2023-04-25T00:28:15;6.70;99.90
52187;DHT22;38161;53.020;6.598;2023-04-25T00:30:41;6.70;99.90
52187;DHT22;38161;53.020;6.598;2023-04-25T00:33:08;6.70;99.90
52187;DHT22;38161;53.020;6.598;2023-04-25T00:35:34;6.70;99.90
52187;DHT22;38161;53.020;6.598;2023-04-25T00:38:00;6.70;99.90
52187;DHT22;38161;53.020;6.598;2023-04-25T00:40:26;6.60;99.90
52187;DHT22;38161;53.020;6.598;2023-04-25T00:42:53;6.60;99.90
52187;DHT22;38161;53.020;6.598;2023-04-25T00:45:19;6.60;99.90
52187;DHT22;38161;53.020;6.598;2023-04-25T00:47:45;6.60;99.90
52187;DHT22;38161;53.020;6.598;2023-04-25T00:50:12;6.60;99.90
52187;DHT22;38161;53.020;6.598;2023-04-25T00:52:38;6.60;99.90
52187;DHT22;38161;53.020;6.598;2023-04-25T00:55:05;6.50;99.90
52187;DHT22;38161;53.020;6.598;2023-04-25T00:57:31;6.50;99.90
52187;DHT22;38161;53.020;6.598;2023-04-25T00:59:58;6.50;99.90
52187;DHT22;38161;53.020;6.598;2023-04-25T01:02:25;6.50;99.90
52187;DHT22;38161;53.020;6.598;2023-04-25T01:04:52;6.50;99.90
52187;DHT22;38161;53.020;6.598;2023-04-25T01:07:18;6.50;99.90
52187;DHT22;38161;53.020;6.598;2023-04-25T01:09:45;6.50;99.90
52187;DHT22;38161;53.020;6.598;2023-04-25T01:12:11;6.50;99.90
52187;DHT22;38161;53.020;6.598;2023-04-25T01:14:37;6.50;99.90
52187;DHT22;38161;53.020;6.598;2023-04-25T01:17:03;6.40;99.90
52187;DHT22;38161;53.020;6.598;2023-04-25T01:19:29;6.40;99.90
52187;DHT22;38161;53.020;6.598;2023-04-25T01:21:56;6.30;99.90
52187;DHT22;38161;53.020;6.598;2023-04-25T01:24:22;6.30;99.90
52187;DHT22;38161;53.020;6.598;2023-04-25T01:26:48;6.30;99.90
52187;DHT22;38161;53.020;6.598;2023-04-25T01:29:19;6.20;99.90
52187;DHT22;38161;53.020;6.598;2023-04-25T01:31:45;6.20;99.90
52187;DHT22;38161;53.020;6.598;2023-04-25T01:34:11;6.20;99.90
52187;DHT22;38161;53.020;6.598;2023-04-25T01:36:37;6.20;99.90
52187;DHT22;38161;53.020;6.598;2023-04-25T01:39:03;6.10;99.90
52187;DHT22;38161;53.020;6.598;2023-04-25T01:41:29;6.20;99.90
52187;DHT22;38161;53.020;6.598;2023-04-25T01:43:55;6.10;99.90
52187;DHT22;38161;53.020;6.598;2023-04-25T01:46:21;6.10;99.90
52187;DHT22;38161;53.020;6.598;2023-04-25T01:48:47;6.10;99.90
52187;DHT22;38161;53.020;6.598;2023-04-25T01:51:13;6.10;99.90
52187;DHT22;38161;53.020;6.598;2023-04-25T01:53:39;6.10;99.90
52187;DHT22;38161;53.020;6.598;2023-04-25T01:56:05;6.10;99.90
52187;DHT22;38161;53.020;6.598;2023-04-25T01:58:31;6.10;99.90
52187;DHT22;38161;53.020;6.598;2023-04-25T02:00:57;6.10;99.90
52187;DHT22;38161;53.020;6.598;2023-04-25T02:03:23;6.10;99.90
52187;DHT22;38161;53.020;6.598;2023-04-25T02:05:48;6.10;99.90
52187;DHT22;38161;53.020;6.598;2023-04-25T02:08:16;6.00;99.90
52187;DHT22;38161;53.020;6.598;2023-04-25T02:10:42;6.00;99.90
52187;DHT22;38161;53.020;6.598;2023-04-25T02:13:08;6.00;99.90
52187;DHT22;38161;53.020;6.598;2023-04-25T02:15:34;6.00;99.90
52187;DHT22;38161;53.020;6.598;2023-04-25T02:18:00;6.00;99.90
52187;DHT22;38161;53.020;6.598;2023-04-25T02:20:27;6.00;99.90
52187;DHT22;38161;53.020;6.598;2023-04-25T02:22:53;6.00;99.90
52187;DHT22;38161;53.020;6.598;2023-04-25T02:25:20;6.00;99.90
52187;DHT22;38161;53.020;6.598;2023-04-25T02:27:47;6.00;99.90
52187;DHT22;38161;53.020;6.598;2023-04-25T02:30:13;6.00;99.90
52187;DHT22;38161;53.020;6.598;2023-04-25T02:32:39;5.90;99.90
52187;DHT22;38161;53.020;6.598;2023-04-25T02:35:05;6.00;99.90
52187;DHT22;38161;53.020;6.598;2023-04-25T02:37:32;5.90;99.90
52187;DHT22;38161;53.020;6.598;2023-04-25T02:39:58;5.90;99.90
52187;DHT22;38161;53.020;6.598;2023-04-25T02:42:24;5.90;99.90
52187;DHT22;38161;53.020;6.598;2023-04-25T02:44:50;5.90;99.90
52187;DHT22;38161;53.020;6.598;2023-04-25T02:47:16;5.90;99.90
52187;DHT22;38161;53.020;6.598;2023-04-25T02:49:41;5.90;99.90
52187;DHT22;38161;53.020;6.598;2023-04-25T02:52:07;5.90;99.90
52187;DHT22;38161;53.020;6.598;2023-04-25T02:54:33;5.90;99.90
52187;DHT22;38161;53.020;6.598;2023-04-25T02:56:58;5.90;99.90
52187;DHT22;38161;53.020;6.598;2023-04-25T02:59:24;5.90;99.90
52187;DHT22;38161;53.020;6.598;2023-04-25T03:01:50;5.80;99.90
52187;DHT22;38161;53.020;6.598;2023-04-25T03:04:16;5.80;99.90
52187;DHT22;38161;53.020;6.598;2023-04-25T03:06:41;5.80;99.90
52187;DHT22;38161;53.020;6.598;2023-04-25T03:09:07;5.80;99.90
52187;DHT22;38161;53.020;6.598;2023-04-25T03:11:33;5.80;99.90
52187;DHT22;38161;53.020;6.598;2023-04-25T03:13:59;5.80;99.90
52187;DHT22;38161;53.020;6.598;2023-04-25T03:16:24;5.80;99.90
52187;DHT22;38161;53.020;6.598;2023-04-25T03:18:50;5.80;99.90
52187;DHT22;38161;53.020;6.598;2023-04-25T03:21:16;5.80;99.90
52187;DHT22;38161;53.020;6.598;2023-04-25T03:23:42;5.80;99.90
52187;DHT22;38161;53.020;6.598;2023-04-25T03:26:08;5.80;99.90
52187;DHT22;38161;53.020;6.598;2023-04-25T03:28:34;5.80;99.90
52187;DHT22;38161;53.020;6.598;2023-04-25T03:30:59;5.80;99.90
52187;DHT22;38161;53.020;6.598;2023-04-25T03:33:25;5.80;99.90
52187;DHT22;38161;53.020;6.598;2023-04-25T03:35:51;5.70;99.90
52187;DHT22;38161;53.020;6.598;2023-04-25T03:38:17;5.70;99.90
52187;DHT22;38161;53.020;6.598;2023-04-25T03:40:43;5.70;99.90
52187;DHT22;38161;53.020;6.598;2023-04-25T03:43:09;6.80;99.90
52187;DHT22;38161;53.020;6.598;2023-04-25T03:45:34;5.70;99.90
52187;DHT22;38161;53.020;6.598;2023-04-25T03:48:00;5.70;99.90
52187;DHT22;38161;53.020;6.598;2023-04-25T03:50:26;5.70;99.90
52187;DHT22;38161;53.020;6.598;2023-04-25T03:52:52;5.70;99.90
52187;DHT22;38161;53.020;6.598;2023-04-25T03:55:17;5.60;99.90
52187;DHT22;38161;53.020;6.598;2023-04-25T03:57:43;5.60;99.90
52187;DHT22;38161;53.020;6.598;2023-04-25T04:00:10;5.60;99.90
52187;DHT22;38161;53.020;6.598;2023-04-25T04:02:36;5.50;99.90
52187;DHT22;38161;53.020;6.598;2023-04-25T04:05:03;5.50;99.90
52187;DHT22;38161;53.020;6.598;2023-04-25T04:07:29;5.40;99.90
52187;DHT22;38161;53.020;6.598;2023-04-25T04:09:55;5.50;99.90
52187;DHT22;38161;53.020;6.598;2023-04-25T04:12:21;5.40;99.90
52187;DHT22;38161;53.020;6.598;2023-04-25T04:14:46;5.30;99.90
52187;DHT22;38161;53.020;6.598;2023-04-25T04:17:12;5.20;99.90
52187;DHT22;38161;53.020;6.598;2023-04-25T04:19:38;5.20;99.90
52187;DHT22;38161;53.020;6.598;2023-04-25T04:25:42;5.20;99.90
52187;DHT22;38161;53.020;6.598;2023-04-25T04:28:08;5.00;99.90
52187;DHT22;38161;53.020;6.598;2023-04-25T04:30:34;5.10;99.90
52187;DHT22;38161;53.020;6.598;2023-04-25T04:33:03;5.10;99.90
52187;DHT22;38161;53.020;6.598;2023-04-25T04:35:29;5.00;99.90
52187;DHT22;38161;53.020;6.598;2023-04-25T04:37:54;5.00;99.90
52187;DHT22;38161;53.020;6.598;2023-04-25T04:40:20;5.00;99.90
52187;DHT22;38161;53.020;6.598;2023-04-25T04:42:47;5.00;99.90
52187;DHT22;38161;53.020;6.598;2023-04-25T04:45:14;5.10;99.90
52187;DHT22;38161;53.020;6.598;2023-04-25T04:47:40;5.10;99.90
52187;DHT22;38161;53.020;6.598;2023-04-25T04:50:09;5.00;99.90
52187;DHT22;38161;53.020;6.598;2023-04-25T04:52:38;5.00;99.90
52187;DHT22;38161;53.020;6.598;2023-04-25T04:55:05;5.00;99.90
52187;DHT22;38161;53.020;6.598;2023-04-25T04:57:31;5.00;99.90
52187;DHT22;38161;53.020;6.598;2023-04-25T04:59:58;5.00;99.90
52187;DHT22;38161;53.020;6.598;2023-04-25T05:02:24;4.90;99.90
52187;DHT22;38161;53.020;6.598;2023-04-25T05:04:51;4.90;99.90
52187;DHT22;38161;53.020;6.598;2023-04-25T05:07:17;4.90;99.90
52187;DHT22;38161;53.020;6.598;2023-04-25T05:09:43;4.90;99.90
52187;DHT22;38161;53.020;6.598;2023-04-25T05:12:09;4.90;99.90
52187;DHT22;38161;53.020;6.598;2023-04-25T05:14:35;4.90;99.90
52187;DHT22;38161;53.020;6.598;2023-04-25T05:17:01;4.90;99.90
52187;DHT22;38161;53.020;6.598;2023-04-25T05:19:30;4.90;99.90
52187;DHT22;38161;53.020;6.598;2023-04-25T05:21:56;4.90;99.90
52187;DHT22;38161;53.020;6.598;2023-04-25T05:24:22;4.90;99.90
52187;DHT22;38161;53.020;6.598;2023-04-25T05:26:47;4.90;99.90
52187;DHT22;38161;53.020;6.598;2023-04-25T05:29:13;5.00;99.90
52187;DHT22;38161;53.020;6.598;2023-04-25T05:31:39;5.00;99.90
52187;DHT22;38161;53.020;6.598;2023-04-25T05:34:05;5.10;99.90
52187;DHT22;38161;53.020;6.598;2023-04-25T05:36:31;5.10;99.90
52187;DHT22;38161;53.020;6.598;2023-04-25T05:38:57;5.20;99.90
52187;DHT22;38161;53.020;6.598;2023-04-25T05:41:23;5.20;99.90
52187;DHT22;38161;53.020;6.598;2023-04-25T05:43:49;5.30;99.90
52187;DHT22;38161;53.020;6.598;2023-04-25T05:46:15;5.30;99.90
52187;DHT22;38161;53.020;6.598;2023-04-25T05:48:44;5.40;99.90
52187;DHT22;38161;53.020;6.598;2023-04-25T05:51:09;5.50;99.90
52187;DHT22;38161;53.020;6.598;2023-04-25T05:53:35;5.60;99.90
52187;DHT22;38161;53.020;6.598;2023-04-25T05:56:01;5.70;99.90
52187;DHT22;38161;53.020;6.598;2023-04-25T05:58:27;5.80;99.90
52187;DHT22;38161;53.020;6.598;2023-04-25T06:00:53;5.80;99.90
52187;DHT22;38161;53.020;6.598;2023-04-25T06:03:18;5.90;99.90
52187;DHT22;38161;53.020;6.598;2023-04-25T06:05:44;6.00;99.90
52187;DHT22;38161;53.020;6.598;2023-04-25T06:08:10;6.00;99.90
52187;DHT22;38161;53.020;6.598;2023-04-25T06:10:36;6.10;99.90
52187;DHT22;38161;53.020;6.598;2023-04-25T06:13:03;6.10;99.90
52187;DHT22;38161;53.020;6.598;2023-04-25T06:15:29;6.20;99.90
52187;DHT22;38161;53.020;6.598;2023-04-25T06:17:55;6.30;99.90
52187;DHT22;38161;53.020;6.598;2023-04-25T06:20:21;6.40;99.90
52187;DHT22;38161;53.020;6.598;2023-04-25T06:22:50;6.40;99.90
52187;DHT22;38161;53.020;6.598;2023-04-25T06:25:16;6.50;99.90
52187;DHT22;38161;53.020;6.598;2023-04-25T06:27:41;6.60;99.90
52187;DHT22;38161;53.020;6.598;2023-04-25T06:30:07;6.60;99.90
52187;DHT22;38161;53.020;6.598;2023-04-25T06:32:33;6.70;99.90
52187;DHT22;38161;53.020;6.598;2023-04-25T06:35:00;6.80;99.90
52187;DHT22;38161;53.020;6.598;2023-04-25T06:37:26;7.10;99.90
52187;DHT22;38161;53.020;6.598;2023-04-25T06:39:52;7.20;99.90
52187;DHT22;38161;53.020;6.598;2023-04-25T06:42:18;7.10;99.90
52187;DHT22;38161;53.020;6.598;2023-04-25T06:44:43;7.10;99.90
52187;DHT22;38161;53.020;6.598;2023-04-25T06:47:09;7.10;99.90
52187;DHT22;38161;53.020;6.598;2023-04-25T06:49:35;7.10;99.90
52187;DHT22;38161;53.020;6.598;2023-04-25T06:52:02;7.10;99.90
52187;DHT22;38161;53.020;6.598;2023-04-25T06:54:28;7.00;99.90
52187;DHT22;38161;53.020;6.598;2023-04-25T06:56:55;7.10;99.90
52187;DHT22;38161;53.020;6.598;2023-04-25T06:59:21;7.20;99.90
52187;DHT22;38161;53.020;6.598;2023-04-25T07:01:47;7.30;99.90
52187;DHT22;38161;53.020;6.598;2023-04-25T07:04:13;7.40;99.90
52187;DHT22;38161;53.020;6.598;2023-04-25T07:06:38;7.60;99.90
52187;DHT22;38161;53.020;6.598;2023-04-25T07:09:08;7.80;99.90
52187;DHT22;38161;53.020;6.598;2023-04-25T07:11:35;8.00;99.90
52187;DHT22;38161;53.020;6.598;2023-04-25T07:14:02;8.20;99.90
52187;DHT22;38161;53.020;6.598;2023-04-25T07:16:28;8.40;99.90
52187;DHT22;38161;53.020;6.598;2023-04-25T07:18:54;8.40;99.90
52187;DHT22;38161;53.020;6.598;2023-04-25T07:21:19;8.50;99.90
52187;DHT22;38161;53.020;6.598;2023-04-25T07:23:45;8.50;99.90
52187;DHT22;38161;53.020;6.598;2023-04-25T07:26:12;8.50;99.90
52187;DHT22;38161;53.020;6.598;2023-04-25T07:28:37;8.40;99.90
52187;DHT22;38161;53.020;6.598;2023-04-25T07:31:03;8.30;99.90
52187;DHT22;38161;53.020;6.598;2023-04-25T07:33:29;8.20;99.90
52187;DHT22;38161;53.020;6.598;2023-04-25T07:35:55;8.10;99.90
52187;DHT22;38161;53.020;6.598;2023-04-25T07:38:21;8.10;99.90
52187;DHT22;38161;53.020;6.598;2023-04-25T07:40:50;8.10;99.90
52187;DHT22;38161;53.020;6.598;2023-04-25T07:43:16;8.20;99.90
52187;DHT22;38161;53.020;6.598;2023-04-25T07:45:43;8.30;99.90
52187;DHT22;38161;53.020;6.598;2023-04-25T07:48:09;8.50;99.90
52187;DHT22;38161;53.020;6.598;2023-04-25T07:50:35;8.70;99.90
52187;DHT22;38161;53.020;6.598;2023-04-25T07:53:01;8.80;99.90
52187;DHT22;38161;53.020;6.598;2023-04-25T07:55:27;8.90;99.90
52187;DHT22;38161;53.020;6.598;2023-04-25T07:57:53;8.90;99.90
52187;DHT22;38161;53.020;6.598;2023-04-25T08:00:19;8.90;99.90
52187;DHT22;38161;53.020;6.598;2023-04-25T08:02:45;8.80;99.90
52187;DHT22;38161;53.020;6.598;2023-04-25T08:05:11;8.60;99.90
52187;DHT22;38161;53.020;6.598;2023-04-25T08:07:40;8.50;99.90
52187;DHT22;38161;53.020;6.598;2023-04-25T08:10:07;8.40;99.90
52187;DHT22;38161;53.020;6.598;2023-04-25T08:12:33;8.30;99.90
52187;DHT22;38161;53.020;6.598;2023-04-25T08:14:59;8.30;99.90
52187;DHT22;38161;53.020;6.598;2023-04-25T08:17:25;8.20;99.90
52187;DHT22;38161;53.020;6.598;2023-04-25T08:19:51;8.10;99.90
52187;DHT22;38161;53.020;6.598;2023-04-25T08:22:16;8.10;99.90
52187;DHT22;38161;53.020;6.598;2023-04-25T08:24:42;8.30;99.90
52187;DHT22;38161;53.020;6.598;2023-04-25T08:27:08;8.50;99.90
52187;DHT22;38161;53.020;6.598;2023-04-25T08:29:34;8.70;99.90
52187;DHT22;38161;53.020;6.598;2023-04-25T08:32:00;8.90;99.90
52187;DHT22;38161;53.020;6.598;2023-04-25T08:34:26;9.10;99.90
52187;DHT22;38161;53.020;6.598;2023-04-25T08:36:52;9.30;99.90
52187;DHT22;38161;53.020;6.598;2023-04-25T08:39:18;9.50;99.90
52187;DHT22;38161;53.020;6.598;2023-04-25T08:41:44;9.70;99.90
52187;DHT22;38161;53.020;6.598;2023-04-25T08:44:11;9.60;99.90
52187;DHT22;38161;53.020;6.598;2023-04-25T08:46:40;9.40;99.90
52187;DHT22;38161;53.020;6.598;2023-04-25T08:49:07;9.20;99.90
52187;DHT22;38161;53.020;6.598;2023-04-25T08:51:36;9.00;99.90
52187;DHT22;38161;53.020;6.598;2023-04-25T08:54:12;8.70;99.90
52187;DHT22;38161;53.020;6.598;2023-04-25T08:56:44;8.50;99.90
52187;DHT22;38161;53.020;6.598;2023-04-25T08:59:11;8.50;99.90
52187;DHT22;38161;53.020;6.598;2023-04-25T09:01:37;8.70;99.90
52187;DHT22;38161;53.020;6.598;2023-04-25T09:04:03;9.10;99.90
52187;DHT22;38161;53.020;6.598;2023-04-25T09:06:30;9.50;99.90
52187;DHT22;38161;53.020;6.598;2023-04-25T09:09:07;9.40;99.90
52187;DHT22;38161;53.020;6.598;2023-04-25T09:11:34;9.10;99.90
52187;DHT22;38161;53.020;6.598;2023-04-25T09:14:18;8.80;99.90
52187;DHT22;38161;53.020;6.598;2023-04-25T09:19:31;8.60;99.90
52187;DHT22;38161;53.020;6.598;2023-04-25T09:21:58;8.70;99.90
52187;DHT22;38161;53.020;6.598;2023-04-25T09:24:37;8.80;99.90
52187;DHT22;38161;53.020;6.598;2023-04-25T09:27:13;8.90;99.90
52187;DHT22;38161;53.020;6.598;2023-04-25T09:29:43;9.00;99.90
52187;DHT22;38161;53.020;6.598;2023-04-25T09:32:22;9.20;99.90
52187;DHT22;38161;53.020;6.598;2023-04-25T09:35:06;9.40;99.90
52187;DHT22;38161;53.020;6.598;2023-04-25T09:37:33;9.90;99.90
52187;DHT22;38161;53.020;6.598;2023-04-25T09:40:03;10.40;99.90
52187;DHT22;38161;53.020;6.598;2023-04-25T09:42:32;10.80;99.90
52187;DHT22;38161;53.020;6.598;2023-04-25T09:45:01;11.20;99.90
52187;DHT22;38161;53.020;6.598;2023-04-25T09:47:27;11.60;99.90
52187;DHT22;38161;53.020;6.598;2023-04-25T09:49:54;11.90;99.90
52187;DHT22;38161;53.020;6.598;2023-04-25T09:52:22;12.20;99.90
52187;DHT22;38161;53.020;6.598;2023-04-25T09:54:49;12.50;99.90
52187;DHT22;38161;53.020;6.598;2023-04-25T09:57:20;12.40;99.90
52187;DHT22;38161;53.020;6.598;2023-04-25T09:59:48;11.90;99.90
52187;DHT22;38161;53.020;6.598;2023-04-25T10:02:16;11.20;99.90
52187;DHT22;38161;53.020;6.598;2023-04-25T10:04:45;10.40;99.90
52187;DHT22;38161;53.020;6.598;2023-04-25T10:07:12;10.00;99.90
52187;DHT22;38161;53.020;6.598;2023-04-25T10:09:39;9.70;99.90
52187;DHT22;38161;53.020;6.598;2023-04-25T10:12:07;9.50;99.90
52187;DHT22;38161;53.020;6.598;2023-04-25T10:14:34;9.30;99.90
52187;DHT22;38161;53.020;6.598;2023-04-25T10:17:00;9.20;99.90
52187;DHT22;38161;53.020;6.598;2023-04-25T10:19:27;9.50;99.90
52187;DHT22;38161;53.020;6.598;2023-04-25T10:22:04;10.00;99.90
52187;DHT22;38161;53.020;6.598;2023-04-25T10:24:31;10.60;99.90
52187;DHT22;38161;53.020;6.598;2023-04-25T10:26:58;11.30;99.90
52187;DHT22;38161;53.020;6.598;2023-04-25T10:29:25;11.80;99.90
52187;DHT22;38161;53.020;6.598;2023-04-25T10:31:51;12.30;99.90
52187;DHT22;38161;53.020;6.598;2023-04-25T10:34:18;12.60;99.90
52187;DHT22;38161;53.020;6.598;2023-04-25T10:36:50;13.10;99.90
52187;DHT22;38161;53.020;6.598;2023-04-25T10:39:24;13.50;99.90
52187;DHT22;38161;53.020;6.598;2023-04-25T10:41:58;13.50;99.90
52187;DHT22;38161;53.020;6.598;2023-04-25T10:44:28;13.00;99.90
52187;DHT22;38161;53.020;6.598;2023-04-25T10:46:56;12.60;99.90
52187;DHT22;38161;53.020;6.598;2023-04-25T10:49:36;12.90;99.90
52187;DHT22;38161;53.020;6.598;2023-04-25T10:54:54;13.80;99.90
52187;DHT22;38161;53.020;6.598;2023-04-25T10:57:46;13.80;99.90
52187;DHT22;38161;53.020;6.598;2023-04-25T11:00:19;13.60;99.90
52187;DHT22;38161;53.020;6.598;2023-04-25T11:02:52;13.20;99.90
52187;DHT22;38161;53.020;6.598;2023-04-25T11:05:31;13.00;99.90
52187;DHT22;38161;53.020;6.598;2023-04-25T11:07:58;13.30;99.90
52187;DHT22;38161;53.020;6.598;2023-04-25T11:10:31;13.80;99.90
52187;DHT22;38161;53.020;6.598;2023-04-25T11:12:58;14.30;99.90
52187;DHT22;38161;53.020;6.598;2023-04-25T11:15:26;14.40;99.90
52187;DHT22;38161;53.020;6.598;2023-04-25T11:17:55;14.00;99.90
52187;DHT22;38161;53.020;6.598;2023-04-25T11:20:22;13.20;99.90
52187;DHT22;38161;53.020;6.598;2023-04-25T11:22:48;12.40;99.90
52187;DHT22;38161;53.020;6.598;2023-04-25T11:25:15;11.70;99.90
52187;DHT22;38161;53.020;6.598;2023-04-25T11:30:17;10.70;99.90
52187;DHT22;38161;53.020;6.598;2023-04-25T11:32:43;10.40;99.90
52187;DHT22;38161;53.020;6.598;2023-04-25T11:35:10;10.40;99.90
52187;DHT22;38161;53.020;6.598;2023-04-25T11:37:36;10.50;99.90
52187;DHT22;38161;53.020;6.598;2023-04-25T11:40:03;10.80;99.90
52187;DHT22;38161;53.020;6.598;2023-04-25T11:42:32;11.20;99.90
52187;DHT22;38161;53.020;6.598;2023-04-25T11:44:59;11.80;99.90
52187;DHT22;38161;53.020;6.598;2023-04-25T11:47:32;12.30;99.90
52187;DHT22;38161;53.020;6.598;2023-04-25T11:49:59;12.80;99.90
52187;DHT22;38161;53.020;6.598;2023-04-25T11:52:36;13.20;99.90
52187;DHT22;38161;53.020;6.598;2023-04-25T11:55:05;13.60;99.90
52187;DHT22;38161;53.020;6.598;2023-04-25T11:57:32;13.90;99.90
52187;DHT22;38161;53.020;6.598;2023-04-25T12:02:37;14.20;99.90
52187;DHT22;38161;53.020;6.598;2023-04-25T12:05:07;14.30;99.90
52187;DHT22;38161;53.020;6.598;2023-04-25T12:07:34;14.30;99.90
52187;DHT22;38161;53.020;6.598;2023-04-25T12:10:05;14.40;99.90
52187;DHT22;38161;53.020;6.598;2023-04-25T12:12:36;14.50;99.90
52187;DHT22;38161;53.020;6.598;2023-04-25T12:15:13;14.80;99.90
52187;DHT22;38161;53.020;6.598;2023-04-25T12:17:41;14.80;99.90
52187;DHT22;38161;53.020;6.598;2023-04-25T12:20:13;14.80;99.90
52187;DHT22;38161;53.020;6.598;2023-04-25T12:22:44;14.80;99.90
52187;DHT22;38161;53.020;6.598;2023-04-25T12:25:37;15.10;99.90
52187;DHT22;38161;53.020;6.598;2023-04-25T12:28:22;15.40;99.90
52187;DHT22;38161;53.020;6.598;2023-04-25T12:33:18;14.50;99.90
52187;DHT22;38161;53.020;6.598;2023-04-25T12:35:44;13.80;99.90
52187;DHT22;38161;53.020;6.598;2023-04-25T12:38:10;13.30;99.90
52187;DHT22;38161;53.020;6.598;2023-04-25T12:40:36;12.90;99.90
52187;DHT22;38161;53.020;6.598;2023-04-25T12:43:02;12.90;99.90
52187;DHT22;38161;53.020;6.598;2023-04-25T12:45:28;13.00;99.90
52187;DHT22;38161;53.020;6.598;2023-04-25T12:47:54;13.40;99.90
52187;DHT22;38161;53.020;6.598;2023-04-25T12:50:19;13.60;99.90
52187;DHT22;38161;53.020;6.598;2023-04-25T12:52:45;13.90;99.90
52187;DHT22;38161;53.020;6.598;2023-04-25T12:55:11;14.10;99.90
52187;DHT22;38161;53.020;6.598;2023-04-25T12:57:37;14.10;99.90
52187;DHT22;38161;53.020;6.598;2023-04-25T13:00:03;13.70;99.90
52187;DHT22;38161;53.020;6.598;2023-04-25T13:02:30;13.10;99.90
52187;DHT22;38161;53.020;6.598;2023-04-25T13:04:55;12.90;99.90
52187;DHT22;38161;53.020;6.598;2023-04-25T13:07:21;12.70;99.90
52187;DHT22;38161;53.020;6.598;2023-04-25T13:09:47;12.60;99.90
52187;DHT22;38161;53.020;6.598;2023-04-25T13:12:13;12.50;99.90
52187;DHT22;38161;53.020;6.598;2023-04-25T13:14:38;12.60;99.90
52187;DHT22;38161;53.020;6.598;2023-04-25T13:17:04;13.00;99.90
52187;DHT22;38161;53.020;6.598;2023-04-25T13:19:30;13.30;99.90
52187;DHT22;38161;53.020;6.598;2023-04-25T13:21:56;13.30;99.90
52187;DHT22;38161;53.020;6.598;2023-04-25T13:24:22;13.00;99.90
52187;DHT22;38161;53.020;6.598;2023-04-25T13:26:47;12.70;99.90
52187;DHT22;38161;53.020;6.598;2023-04-25T13:29:13;12.30;99.90
52187;DHT22;38161;53.020;6.598;2023-04-25T13:31:39;11.90;99.90
52187;DHT22;38161;53.020;6.598;2023-04-25T13:34:05;11.60;99.90
52187;DHT22;38161;53.020;6.598;2023-04-25T13:36:31;11.20;99.90
52187;DHT22;38161;53.020;6.598;2023-04-25T13:38:57;11.00;99.90
52187;DHT22;38161;53.020;6.598;2023-04-25T13:41:23;11.00;99.90
52187;DHT22;38161;53.020;6.598;2023-04-25T13:43:48;11.10;99.90
52187;DHT22;38161;53.020;6.598;2023-04-25T13:46:14;11.30;99.90
52187;DHT22;38161;53.020;6.598;2023-04-25T13:48:40;11.70;99.90
52187;DHT22;38161;53.020;6.598;2023-04-25T13:51:12;12.00;99.90
52187;DHT22;38161;53.020;6.598;2023-04-25T13:53:38;12.00;99.90
52187;DHT22;38161;53.020;6.598;2023-04-25T13:56:04;11.70;99.90
52187;DHT22;38161;53.020;6.598;2023-04-25T13:58:30;11.50;99.90
52187;DHT22;38161;53.020;6.598;2023-04-25T14:00:58;11.30;99.90
52187;DHT22;38161;53.020;6.598;2023-04-25T14:03:24;11.00;99.90
52187;DHT22;38161;53.020;6.598;2023-04-25T14:05:50;10.50;99.90
52187;DHT22;38161;53.020;6.598;2023-04-25T14:08:16;10.10;99.90
52187;DHT22;38161;53.020;6.598;2023-04-25T14:10:42;9.70;99.90
52187;DHT22;38161;53.020;6.598;2023-04-25T14:13:07;9.30;99.90
52187;DHT22;38161;53.020;6.598;2023-04-25T14:15:34;9.20;99.90
52187;DHT22;38161;53.020;6.598;2023-04-25T14:18:00;9.20;99.90
52187;DHT22;38161;53.020;6.598;2023-04-25T14:20:26;9.40;99.90
52187;DHT22;38161;53.020;6.598;2023-04-25T14:22:52;9.60;99.90
52187;DHT22;38161;53.020;6.598;2023-04-25T14:25:20;9.80;99.90
52187;DHT22;38161;53.020;6.598;2023-04-25T14:27:46;9.90;99.90
52187;DHT22;38161;53.020;6.598;2023-04-25T14:30:16;9.90;99.90
52187;DHT22;38161;53.020;6.598;2023-04-25T14:32:42;10.00;99.90
52187;DHT22;38161;53.020;6.598;2023-04-25T14:35:08;10.10;99.90
52187;DHT22;38161;53.020;6.598;2023-04-25T14:37:34;10.40;99.90
52187;DHT22;38161;53.020;6.598;2023-04-25T14:40:00;10.60;99.90
52187;DHT22;38161;53.020;6.598;2023-04-25T14:42:28;10.70;99.90
52187;DHT22;38161;53.020;6.598;2023-04-25T14:44:54;10.80;99.90
52187;DHT22;38161;53.020;6.598;2023-04-25T14:47:20;10.70;99.90
52187;DHT22;38161;53.020;6.598;2023-04-25T14:49:46;10.50;99.90
52187;DHT22;38161;53.020;6.598;2023-04-25T14:52:16;10.30;99.90
52187;DHT22;38161;53.020;6.598;2023-04-25T14:54:42;10.20;99.90
52187;DHT22;38161;53.020;6.598;2023-04-25T14:57:08;10.20;99.90
52187;DHT22;38161;53.020;6.598;2023-04-25T14:59:33;10.30;99.90
52187;DHT22;38161;53.020;6.598;2023-04-25T15:01:59;10.50;99.90
52187;DHT22;38161;53.020;6.598;2023-04-25T15:04:25;10.70;99.90
52187;DHT22;38161;53.020;6.598;2023-04-25T15:06:51;10.60;99.90
52187;DHT22;38161;53.020;6.598;2023-04-25T15:09:17;10.60;99.90
52187;DHT22;38161;53.020;6.598;2023-04-25T15:11:43;10.60;99.90
52187;DHT22;38161;53.020;6.598;2023-04-25T15:14:08;10.70;99.90
52187;DHT22;38161;53.020;6.598;2023-04-25T15:16:34;10.80;99.90
52187;DHT22;38161;53.020;6.598;2023-04-25T15:19:00;10.80;99.90
52187;DHT22;38161;53.020;6.598;2023-04-25T15:21:32;10.90;99.90
52187;DHT22;38161;53.020;6.598;2023-04-25T15:23:58;10.90;99.90
52187;DHT22;38161;53.020;6.598;2023-04-25T15:26:24;10.80;99.90
52187;DHT22;38161;53.020;6.598;2023-04-25T15:28:50;10.70;99.90
52187;DHT22;38161;53.020;6.598;2023-04-25T15:31:16;10.40;99.90
52187;DHT22;38161;53.020;6.598;2023-04-25T15:33:42;10.20;99.90
52187;DHT22;38161;53.020;6.598;2023-04-25T15:36:08;10.20;99.90
52187;DHT22;38161;53.020;6.598;2023-04-25T15:38:36;10.30;99.90
52187;DHT22;38161;53.020;6.598;2023-04-25T15:41:04;10.30;99.90
52187;DHT22;38161;53.020;6.598;2023-04-25T15:43:30;10.30;99.90
52187;DHT22;38161;53.020;6.598;2023-04-25T15:45:56;10.20;99.90
52187;DHT22;38161;53.020;6.598;2023-04-25T15:48:22;10.00;99.90
52187;DHT22;38161;53.020;6.598;2023-04-25T15:50:48;10.00;99.90
52187;DHT22;38161;53.020;6.598;2023-04-25T15:53:13;10.00;99.90
52187;DHT22;38161;53.020;6.598;2023-04-25T15:55:39;10.10;99.90